sensor_id;sensor_type;location;lat;lon;timestamp;pressure;altitude;pressure_sealevel;temperature;humidity
68891;BME280;55932;48.702;8.884;2023-06-05T00:01:01;96210;;;11.5;53
68891;BME280;55932;48.702;8.884;2023-06-05T00:03:38;96210;;;11.5;53
68891;BME280;55932;48.702;8.884;2023-06-05T00:06:08;96210;;;11.5;53
68891;BME280;55932;48.702;8.884;2023-06-05T00:11:02;96220;;;11.4;53
68891;BME280;55932;48.702;8.884;2023-06-05T00:13:33;96220;;;11.5;53
68891;BME280;55932;48.702;8.884;2023-06-05T00:16:04;96220;;;11.5;53
68891;BME280;55932;48.702;8.884;2023-06-05T00:18:35;96220;;;11.5;53
68891;BME280;55932;48.702;8.884;2023-06-05T00:21:07;96220;;;11.5;53
68891;BME280;55932;48.702;8.884;2023-06-05T00:23:37;96220;;;11.5;53
68891;BME280;55932;48.702;8.884;2023-06-05T00:28:39;96220;;;11.6;53
68891;BME280;55932;48.702;8.884;2023-06-05T00:31:16;96220;;;11.6;53
68891;BME280;55932;48.702;8.884;2023-06-05T00:33:48;96210;;;11.6;53
68891;BME280;55932;48.702;8.884;2023-06-05T00:39:02;96220;;;11.5;53
68891;BME280;55932;48.702;8.884;2023-06-05T00:41:19;96210;;;11.5;53.5
68891;BME280;55932;48.702;8.884;2023-06-05T00:43:50;96210;;;11.4;53.5
68891;BME280;55932;48.702;8.884;2023-06-05T00:46:20;96210;;;11.3;53.5
68891;BME280;55932;48.702;8.884;2023-06-05T00:48:50;96210;;;11.2;53.5
68891;BME280;55932;48.702;8.884;2023-06-05T00:51:20;96210;;;11.1;53.5
68891;BME280;55932;48.702;8.884;2023-06-05T00:53:50;96210;;;11.2;53.5
68891;BME280;55932;48.702;8.884;2023-06-05T00:56:20;96210;;;11.2;53.5
68891;BME280;55932;48.702;8.884;2023-06-05T00:58:38;96210;;;11.3;53.5
68891;BME280;55932;48.702;8.884;2023-06-05T01:08:42;96220;;;11.2;53.5
68891;BME280;55932;48.702;8.884;2023-06-05T01:11:16;96210;;;11.1;53.5
68891;BME280;55932;48.702;8.884;2023-06-05T01:13:45;96210;;;11;54
68891;BME280;55932;48.702;8.884;2023-06-05T01:16:14;96220;;;10.9;54
68891;BME280;55932;48.702;8.884;2023-06-05T01:18:59;96210;;;11;53.5
68891;BME280;55932;48.702;8.884;2023-06-05T01:21:29;96210;;;10.9;54
68891;BME280;55932;48.702;8.884;2023-06-05T01:23:58;96220;;;10.9;54
68891;BME280;55932;48.702;8.884;2023-06-05T01:26:32;96220;;;11;53.5
68891;BME280;55932;48.702;8.884;2023-06-05T01:31:25;96230;;;10.7;54
68891;BME280;55932;48.702;8.884;2023-06-05T01:33:57;96220;;;10.6;54.5
68891;BME280;55932;48.702;8.884;2023-06-05T01:36:26;96220;;;10.4;54.5
68891;BME280;55932;48.702;8.884;2023-06-05T01:38:57;96220;;;10.4;54.5
68891;BME280;55932;48.702;8.884;2023-06-05T01:41:29;96220;;;10.4;54.5
68891;BME280;55932;48.702;8.884;2023-06-05T01:44:00;96210;;;10.4;54.5
68891;BME280;55932;48.702;8.884;2023-06-05T01:46:30;96210;;;10.3;54.5
68891;BME280;55932;48.702;8.884;2023-06-05T01:48:54;96210;;;10.3;54.5
68891;BME280;55932;48.702;8.884;2023-06-05T01:56:27;96210;;;10.2;54.5
68891;BME280;55932;48.702;8.884;2023-06-05T01:58:57;96210;;;10.2;54.5
68891;BME280;55932;48.702;8.884;2023-06-05T02:01:28;96210;;;10.2;54.5
68891;BME280;55932;48.702;8.884;2023-06-05T02:06:31;96210;;;10.2;54.5
68891;BME280;55932;48.702;8.884;2023-06-05T02:09:00;96210;;;10.2;54.5
68891;BME280;55932;48.702;8.884;2023-06-05T02:11:45;96210;;;10.1;54.5
68891;BME280;55932;48.702;8.884;2023-06-05T02:14:28;96210;;;10;54.5
68891;BME280;55932;48.702;8.884;2023-06-05T02:16:45;96210;;;10;54.5
68891;BME280;55932;48.702;8.884;2023-06-05T02:19:15;96210;;;9.9;55
68891;BME280;55932;48.702;8.884;2023-06-05T02:24:10;96210;;;9.9;55
68891;BME280;55932;48.702;8.884;2023-06-05T02:26:41;96210;;;9.9;55
68891;BME280;55932;48.702;8.884;2023-06-05T02:31:49;96210;;;9.7;55
68891;BME280;55932;48.702;8.884;2023-06-05T02:34:26;96210;;;9.9;55
68891;BME280;55932;48.702;8.884;2023-06-05T02:36:49;96210;;;10;54.5
68891;BME280;55932;48.702;8.884;2023-06-05T02:39:19;96210;;;10.1;54.5
68891;BME280;55932;48.702;8.884;2023-06-05T02:41:49;96200;;;10.1;54.5
68891;BME280;55932;48.702;8.884;2023-06-05T02:49:14;96210;;;9.9;55
68891;BME280;55932;48.702;8.884;2023-06-05T02:51:45;96200;;;9.9;54.5
68891;BME280;55932;48.702;8.884;2023-06-05T02:54:16;96200;;;9.8;54.5
68891;BME280;55932;48.702;8.884;2023-06-05T02:56:47;96200;;;9.6;55
68891;BME280;55932;48.702;8.884;2023-06-05T02:59:18;96190;;;9.6;55
68891;BME280;55932;48.702;8.884;2023-06-05T03:01:50;96190;;;9.5;55.5
68891;BME280;55932;48.702;8.884;2023-06-05T03:04:20;96200;;;9.5;55.5
68891;BME280;55932;48.702;8.884;2023-06-05T03:06:51;96200;;;9.6;55
68891;BME280;55932;48.702;8.884;2023-06-05T03:09:22;96200;;;9.6;55
68891;BME280;55932;48.702;8.884;2023-06-05T03:11:53;96200;;;9.6;55
68891;BME280;55932;48.702;8.884;2023-06-05T03:14:31;96200;;;9.6;55
68891;BME280;55932;48.702;8.884;2023-06-05T03:19:26;96200;;;9.6;55
68891;BME280;55932;48.702;8.884;2023-06-05T03:24:35;96200;;;9.6;55
68891;BME280;55932;48.702;8.884;2023-06-05T03:27:05;96200;;;9.5;55
68891;BME280;55932;48.702;8.884;2023-06-05T03:29:35;96200;;;9.5;55
68891;BME280;55932;48.702;8.884;2023-06-05T03:32:05;96200;;;9.6;55
68891;BME280;55932;48.702;8.884;2023-06-05T03:36:59;96200;;;9.7;55
68891;BME280;55932;48.702;8.884;2023-06-05T03:39:30;96200;;;9.7;55
68891;BME280;55932;48.702;8.884;2023-06-05T03:42:07;96200;;;9.8;54.5
68891;BME280;55932;48.702;8.884;2023-06-05T03:47:03;96200;;;9.9;54.5
68891;BME280;55932;48.702;8.884;2023-06-05T03:52:12;96200;;;9.8;54.5
68891;BME280;55932;48.702;8.884;2023-06-05T03:54:42;96210;;;9.8;54.5
68891;BME280;55932;48.702;8.884;2023-06-05T03:57:12;96210;;;9.8;54.5
68891;BME280;55932;48.702;8.884;2023-06-05T03:59:42;96210;;;9.8;54.5
68891;BME280;55932;48.702;8.884;2023-06-05T04:02:12;96210;;;9.9;54.5
68891;BME280;55932;48.702;8.884;2023-06-05T04:04:42;96210;;;9.9;54.5
68891;BME280;55932;48.702;8.884;2023-06-05T04:09:42;96210;;;10;54.5
68891;BME280;55932;48.702;8.884;2023-06-05T04:14:42;96210;;;10.1;54.5
68891;BME280;55932;48.702;8.884;2023-06-05T04:17:09;96210;;;10.1;54.5
68891;BME280;55932;48.702;8.884;2023-06-05T04:19:40;96210;;;10.2;54.5
68891;BME280;55932;48.702;8.884;2023-06-05T04:22:11;96220;;;10.2;54.5
68891;BME280;55932;48.702;8.884;2023-06-05T04:24:42;96210;;;10.4;54.5
68891;BME280;55932;48.702;8.884;2023-06-05T04:27:13;96210;;;10.4;54.5
68891;BME280;55932;48.702;8.884;2023-06-05T04:29:44;96220;;;10.5;54.5
68891;BME280;55932;48.702;8.884;2023-06-05T04:32:15;96220;;;10.5;54
68891;BME280;55932;48.702;8.884;2023-06-05T04:34:46;96220;;;10.5;54
68891;BME280;55932;48.702;8.884;2023-06-05T04:37:24;96220;;;10.5;54
68891;BME280;55932;48.702;8.884;2023-06-05T04:39:54;96220;;;10.5;54.5
68891;BME280;55932;48.702;8.884;2023-06-05T04:44:53;96220;;;10.6;54.5
68891;BME280;55932;48.702;8.884;2023-06-05T04:49:51;96210;;;10.9;54
68891;BME280;55932;48.702;8.884;2023-06-05T04:52:22;96220;;;11.1;53.5
68891;BME280;55932;48.702;8.884;2023-06-05T04:54:54;96220;;;11.2;53.5
68891;BME280;55932;48.702;8.884;2023-06-05T04:57:31;96220;;;11.3;53.5
68891;BME280;55932;48.702;8.884;2023-06-05T04:59:55;96220;;;11.5;53.5
68891;BME280;55932;48.702;8.884;2023-06-05T05:02:26;96220;;;11.6;53.5
68891;BME280;55932;48.702;8.884;2023-06-05T05:04:57;96220;;;11.6;53.5
68891;BME280;55932;48.702;8.884;2023-06-05T05:07:35;96210;;;11.6;53.5
68891;BME280;55932;48.702;8.884;2023-06-05T05:10:06;96220;;;11.9;53
68891;BME280;55932;48.702;8.884;2023-06-05T05:12:31;96220;;;12.8;51.5
68891;BME280;55932;48.702;8.884;2023-06-05T05:17:25;96210;;;12.8;52
68891;BME280;55932;48.702;8.884;2023-06-05T05:19:56;96220;;;12.7;52.5
68891;BME280;55932;48.702;8.884;2023-06-05T05:22:26;96220;;;12.7;52.5
68891;BME280;55932;48.702;8.884;2023-06-05T05:24:58;96220;;;12.8;52.5
68891;BME280;55932;48.702;8.884;2023-06-05T05:27:28;96230;;;13;52.5
68891;BME280;55932;48.702;8.884;2023-06-05T05:30:03;96230;;;13;52.5
68891;BME280;55932;48.702;8.884;2023-06-05T05:32:33;96230;;;13.1;52.5
68891;BME280;55932;48.702;8.884;2023-06-05T05:35:14;96220;;;13.2;52.5
68891;BME280;55932;48.702;8.884;2023-06-05T05:37:44;96220;;;13.2;52.5
68891;BME280;55932;48.702;8.884;2023-06-05T05:40:14;96220;;;13.4;52.5
68891;BME280;55932;48.702;8.884;2023-06-05T05:45:09;96220;;;13.9;52
68891;BME280;55932;48.702;8.884;2023-06-05T05:47:40;96220;;;14.1;52
68891;BME280;55932;48.702;8.884;2023-06-05T05:52:48;96230;;;14.5;51.5
68891;BME280;55932;48.702;8.884;2023-06-05T05:55:18;96230;;;14.6;51.5
68891;BME280;55932;48.702;8.884;2023-06-05T05:57:42;96230;;;14.7;51.5
68891;BME280;55932;48.702;8.884;2023-06-05T06:00:13;96230;;;14.8;51.5
68891;BME280;55932;48.702;8.884;2023-06-05T06:02:44;96230;;;14.8;51.5
68891;BME280;55932;48.702;8.884;2023-06-05T06:05:15;96230;;;14.9;51.5
68891;BME280;55932;48.702;8.884;2023-06-05T06:07:52;96230;;;15;51.5
68891;BME280;55932;48.702;8.884;2023-06-05T06:13:07;96220;;;15.1;51.5
68891;BME280;55932;48.702;8.884;2023-06-05T06:15:24;96230;;;15.1;51.5
68891;BME280;55932;48.702;8.884;2023-06-05T06:18:02;96220;;;15.3;51.5
68891;BME280;55932;48.702;8.884;2023-06-05T06:20:25;96220;;;15.4;51.5
68891;BME280;55932;48.702;8.884;2023-06-05T06:22:55;96220;;;15.4;51.5
68891;BME280;55932;48.702;8.884;2023-06-05T06:27:49;96220;;;15.7;51.5
68891;BME280;55932;48.702;8.884;2023-06-05T06:30:20;96230;;;15.7;51.5
68891;BME280;55932;48.702;8.884;2023-06-05T06:32:57;96230;;;15.8;51.5
68891;BME280;55932;48.702;8.884;2023-06-05T06:35:28;96220;;;15.9;51.5
68891;BME280;55932;48.702;8.884;2023-06-05T06:40:42;96220;;;16.1;51.5
68891;BME280;55932;48.702;8.884;2023-06-05T06:43:01;96220;;;16.3;51.5
68891;BME280;55932;48.702;8.884;2023-06-05T06:45:30;96230;;;16.4;51
68891;BME280;55932;48.702;8.884;2023-06-05T06:47:54;96220;;;16.5;51
68891;BME280;55932;48.702;8.884;2023-06-05T06:50:25;96230;;;16.7;51
68891;BME280;55932;48.702;8.884;2023-06-05T06:52:56;96230;;;16.9;51
68891;BME280;55932;48.702;8.884;2023-06-05T06:55:27;96230;;;17;51
68891;BME280;55932;48.702;8.884;2023-06-05T06:57:58;96220;;;17.1;51
68891;BME280;55932;48.702;8.884;2023-06-05T07:00:29;96220;;;17.3;51
68891;BME280;55932;48.702;8.884;2023-06-05T07:03:07;96220;;;17.5;50.5
68891;BME280;55932;48.702;8.884;2023-06-05T07:10:39;96210;;;23.2;43.5
68891;BME280;55932;48.702;8.884;2023-06-05T07:13:10;96220;;;24.7;42
68891;BME280;55932;48.702;8.884;2023-06-05T07:18:04;96220;;;25.6;42
68891;BME280;55932;48.702;8.884;2023-06-05T07:20:41;96220;;;27.5;39.5
68891;BME280;55932;48.702;8.884;2023-06-05T07:23:13;96220;;;27.2;41
68891;BME280;55932;48.702;8.884;2023-06-05T07:25:37;96220;;;26.8;41.5
68891;BME280;55932;48.702;8.884;2023-06-05T07:28:08;96210;;;27;42
68891;BME280;55932;48.702;8.884;2023-06-05T07:30:39;96220;;;29;39.5
68891;BME280;55932;48.702;8.884;2023-06-05T07:35:33;96220;;;29.1;41
68891;BME280;55932;48.702;8.884;2023-06-05T07:38:04;96220;;;29.9;40
68891;BME280;55932;48.702;8.884;2023-06-05T07:40:35;96210;;;29.2;42
68891;BME280;55932;48.702;8.884;2023-06-05T07:43:05;96210;;;28.4;43.5
68891;BME280;55932;48.702;8.884;2023-06-05T07:45:36;96210;;;28.9;42.5
68891;BME280;55932;48.702;8.884;2023-06-05T07:55:45;96210;;;27.6;46
68891;BME280;55932;48.702;8.884;2023-06-05T08:00:47;96210;;;27.6;45.5
68891;BME280;55932;48.702;8.884;2023-06-05T08:03:17;96200;;;28.1;45
68891;BME280;55932;48.702;8.884;2023-06-05T08:05:49;96210;;;27.7;46
68891;BME280;55932;48.702;8.884;2023-06-05T08:08:19;96210;;;27.6;46
68891;BME280;55932;48.702;8.884;2023-06-05T08:10:44;96200;;;27.3;46.5
68891;BME280;55932;48.702;8.884;2023-06-05T08:13:14;96210;;;27.4;46.5
68891;BME280;55932;48.702;8.884;2023-06-05T08:23:17;96200;;;28.1;46
68891;BME280;55932;48.702;8.884;2023-06-05T08:25:48;96190;;;28.1;46.5
68891;BME280;55932;48.702;8.884;2023-06-05T08:33:21;96200;;;29.2;44.5
68891;BME280;55932;48.702;8.884;2023-06-05T08:35:51;96200;;;29.9;44
68891;BME280;55932;48.702;8.884;2023-06-05T08:41:06;96200;;;29;45.5
68891;BME280;55932;48.702;8.884;2023-06-05T08:43:36;96200;;;28.1;46.5
68891;BME280;55932;48.702;8.884;2023-06-05T08:46:07;96200;;;27.7;47
68891;BME280;55932;48.702;8.884;2023-06-05T08:51:20;96200;;;27.6;47
68891;BME280;55932;48.702;8.884;2023-06-05T08:56:07;96190;;;27.8;46.5
68891;BME280;55932;48.702;8.884;2023-06-05T09:03:37;96190;;;28.6;45.5
68891;BME280;55932;48.702;8.884;2023-06-05T09:06:10;96190;;;30;43.5
68891;BME280;55932;48.702;8.884;2023-06-05T09:08:44;96200;;;29.5;44.5
68891;BME280;55932;48.702;8.884;2023-06-05T09:11:29;96200;;;28.8;45.5
68891;BME280;55932;48.702;8.884;2023-06-05T09:13:44;96190;;;28.5;46
68891;BME280;55932;48.702;8.884;2023-06-05T09:18:32;96200;;;27;47.5
68891;BME280;55932;48.702;8.884;2023-06-05T09:21:12;96190;;;26.9;47.5
68891;BME280;55932;48.702;8.884;2023-06-05T09:23:34;96190;;;27.9;47
68891;BME280;55932;48.702;8.884;2023-06-05T09:33:31;96190;;;24.9;49.5
68891;BME280;55932;48.702;8.884;2023-06-05T09:36:02;96190;;;25.5;49.5
68891;BME280;55932;48.702;8.884;2023-06-05T09:46:07;96190;;;24;50.5
68891;BME280;55932;48.702;8.884;2023-06-05T09:48:35;96190;;;24;50
68891;BME280;55932;48.702;8.884;2023-06-05T09:51:32;96180;;;24.6;49.5
68891;BME280;55932;48.702;8.884;2023-06-05T09:53:50;96180;;;25;49.5
68891;BME280;55932;48.702;8.884;2023-06-05T09:56:20;96180;;;25.3;49
68891;BME280;55932;48.702;8.884;2023-06-05T09:58:51;96170;;;26.4;48
68891;BME280;55932;48.702;8.884;2023-06-05T10:01:22;96180;;;27.1;47
68891;BME280;55932;48.702;8.884;2023-06-05T10:06:27;96170;;;27;47
68891;BME280;55932;48.702;8.884;2023-06-05T10:08:51;96180;;;25.9;48
68891;BME280;55932;48.702;8.884;2023-06-05T10:11:27;96180;;;25.3;48.5
68891;BME280;55932;48.702;8.884;2023-06-05T10:13:51;96180;;;24.7;49
68891;BME280;55932;48.702;8.884;2023-06-05T10:16:21;96170;;;26;48.5
68891;BME280;55932;48.702;8.884;2023-06-05T10:18:51;96170;;;27.2;47
68891;BME280;55932;48.702;8.884;2023-06-05T10:24:05;96170;;;27.5;46.5
68891;BME280;55932;48.702;8.884;2023-06-05T10:26:36;96160;;;28.4;45.5
68891;BME280;55932;48.702;8.884;2023-06-05T10:28:59;96170;;;28.4;45.5
68891;BME280;55932;48.702;8.884;2023-06-05T10:31:26;96170;;;26.7;47
68891;BME280;55932;48.702;8.884;2023-06-05T10:36:31;96170;;;27.7;46.5
68891;BME280;55932;48.702;8.884;2023-06-05T10:38:56;96170;;;28.2;46
68891;BME280;55932;48.702;8.884;2023-06-05T10:41:26;96170;;;26.5;47
68891;BME280;55932;48.702;8.884;2023-06-05T10:44:11;96170;;;26.8;47.5
68891;BME280;55932;48.702;8.884;2023-06-05T10:46:47;96170;;;27.7;46.5
68891;BME280;55932;48.702;8.884;2023-06-05T10:49:11;96170;;;27.2;47
68891;BME280;55932;48.702;8.884;2023-06-05T10:51:36;96170;;;27.3;47
68891;BME280;55932;48.702;8.884;2023-06-05T10:54:05;96160;;;27.6;46.5
68891;BME280;55932;48.702;8.884;2023-06-05T10:56:52;96160;;;29.1;44.5
68891;BME280;55932;48.702;8.884;2023-06-05T10:59:24;96160;;;28.4;45.5
68891;BME280;55932;48.702;8.884;2023-06-05T11:01:23;96160;;;26.5;47
68891;BME280;55932;48.702;8.884;2023-06-05T11:03:54;96160;;;24.8;49.5
68891;BME280;55932;48.702;8.884;2023-06-05T11:06:26;96160;;;24.7;49.5
68891;BME280;55932;48.702;8.884;2023-06-05T11:09:06;96150;;;25.7;49
68891;BME280;55932;48.702;8.884;2023-06-05T11:11:54;96160;;;27.3;47
68891;BME280;55932;48.702;8.884;2023-06-05T11:14:04;96150;;;28.4;46
68891;BME280;55932;48.702;8.884;2023-06-05T11:16:28;96150;;;27.2;46.5
68891;BME280;55932;48.702;8.884;2023-06-05T11:19:34;96150;;;27.2;47
68891;BME280;55932;48.702;8.884;2023-06-05T11:22:08;96150;;;28.3;46
68891;BME280;55932;48.702;8.884;2023-06-05T11:24:16;96150;;;28.5;46
68891;BME280;55932;48.702;8.884;2023-06-05T11:26:39;96140;;;28.5;45.5
68891;BME280;55932;48.702;8.884;2023-06-05T11:31:33;96130;;;30.3;43.5
68891;BME280;55932;48.702;8.884;2023-06-05T11:34:10;96130;;;30;44
68891;BME280;55932;48.702;8.884;2023-06-05T11:36:41;96130;;;29.7;44.5
68891;BME280;55932;48.702;8.884;2023-06-05T11:39:11;96140;;;29.2;45
68891;BME280;55932;48.702;8.884;2023-06-05T11:46:38;96130;;;29;45.5
68891;BME280;55932;48.702;8.884;2023-06-05T11:51:38;96140;;;29;46
68891;BME280;55932;48.702;8.884;2023-06-05T11:54:09;96140;;;29;46
68891;BME280;55932;48.702;8.884;2023-06-05T11:56:46;96140;;;29;46
68891;BME280;55932;48.702;8.884;2023-06-05T11:59:16;96140;;;28.9;46
68891;BME280;55932;48.702;8.884;2023-06-05T12:04:17;96140;;;29.5;45.5
68891;BME280;55932;48.702;8.884;2023-06-05T12:06:44;96140;;;28.3;46.5
68891;BME280;55932;48.702;8.884;2023-06-05T12:09:13;96140;;;28.5;46.5
68891;BME280;55932;48.702;8.884;2023-06-05T12:11:44;96130;;;29.1;45.5
68891;BME280;55932;48.702;8.884;2023-06-05T12:14:45;96130;;;29.4;45.5
68891;BME280;55932;48.702;8.884;2023-06-05T12:16:46;96120;;;29.7;45
68891;BME280;55932;48.702;8.884;2023-06-05T12:19:17;96110;;;29.7;45
68891;BME280;55932;48.702;8.884;2023-06-05T12:21:48;96110;;;30.3;44
68891;BME280;55932;48.702;8.884;2023-06-05T12:24:23;96110;;;30.7;43.5
68891;BME280;55932;48.702;8.884;2023-06-05T12:26:57;96110;;;30.5;44.5
68891;BME280;55932;48.702;8.884;2023-06-05T12:34:44;96110;;;30.5;44.5
68891;BME280;55932;48.702;8.884;2023-06-05T12:36:58;96100;;;30.2;44.5
68891;BME280;55932;48.702;8.884;2023-06-05T12:41:52;96100;;;29.8;45
68891;BME280;55932;48.702;8.884;2023-06-05T12:44:23;96100;;;29.2;45.5
68891;BME280;55932;48.702;8.884;2023-06-05T12:46:54;96100;;;29.7;45.5
68891;BME280;55932;48.702;8.884;2023-06-05T12:49:32;96100;;;29.5;45.5
68891;BME280;55932;48.702;8.884;2023-06-05T12:52:04;96090;;;29.7;45
68891;BME280;55932;48.702;8.884;2023-06-05T12:56:57;96090;;;30.7;44
68891;BME280;55932;48.702;8.884;2023-06-05T12:59:28;96090;;;30.9;44
68891;BME280;55932;48.702;8.884;2023-06-05T13:02:00;96090;;;30.5;44.5
68891;BME280;55932;48.702;8.884;2023-06-05T13:04:30;96090;;;29.9;45
68891;BME280;55932;48.702;8.884;2023-06-05T13:09:38;96080;;;30;45
68891;BME280;55932;48.702;8.884;2023-06-05T13:14:40;96080;;;30.2;44.5
68891;BME280;55932;48.702;8.884;2023-06-05T13:19:42;96080;;;28.2;46
68891;BME280;55932;48.702;8.884;2023-06-05T13:29:42;96080;;;26;48.5
68891;BME280;55932;48.702;8.884;2023-06-05T13:32:19;96080;;;27;47.5
68891;BME280;55932;48.702;8.884;2023-06-05T13:34:53;96080;;;28.4;46
68891;BME280;55932;48.702;8.884;2023-06-05T13:37:20;96070;;;29.5;45
68891;BME280;55932;48.702;8.884;2023-06-05T13:39:44;96070;;;29.9;44.5
68891;BME280;55932;48.702;8.884;2023-06-05T13:42:13;96070;;;29.9;44.5
68891;BME280;55932;48.702;8.884;2023-06-05T13:44:44;96070;;;30.3;44
68891;BME280;55932;48.702;8.884;2023-06-05T13:49:44;96060;;;30;44.5
68891;BME280;55932;48.702;8.884;2023-06-05T13:52:14;96060;;;31;43.5
68891;BME280;55932;48.702;8.884;2023-06-05T13:54:44;96050;;;31.5;43.5
68891;BME280;55932;48.702;8.884;2023-06-05T13:57:14;96060;;;31.2;43.5
68891;BME280;55932;48.702;8.884;2023-06-05T13:59:38;96060;;;30.9;44
68891;BME280;55932;48.702;8.884;2023-06-05T14:02:09;96050;;;30.7;44
68891;BME280;55932;48.702;8.884;2023-06-05T14:04:40;96050;;;30.7;44
68891;BME280;55932;48.702;8.884;2023-06-05T14:07:11;96050;;;29.2;45.5
68891;BME280;55932;48.702;8.884;2023-06-05T14:09:42;96060;;;27.2;47
68891;BME280;55932;48.702;8.884;2023-06-05T14:17:33;96040;;;26.9;47
68891;BME280;55932;48.702;8.884;2023-06-05T14:19:50;96060;;;27.8;46.5
68891;BME280;55932;48.702;8.884;2023-06-05T14:22:21;96050;;;29.3;45
68891;BME280;55932;48.702;8.884;2023-06-05T14:27:14;96040;;;30.2;44
68891;BME280;55932;48.702;8.884;2023-06-05T14:29:45;96030;;;30.2;44
68891;BME280;55932;48.702;8.884;2023-06-05T14:32:23;96030;;;30.1;44
68891;BME280;55932;48.702;8.884;2023-06-05T14:34:47;96040;;;29.8;44
68891;BME280;55932;48.702;8.884;2023-06-05T14:37:24;96030;;;30;43.5
68891;BME280;55932;48.702;8.884;2023-06-05T14:40:03;96030;;;30;43.5
68891;BME280;55932;48.702;8.884;2023-06-05T14:44:48;96030;;;29.9;43.5
68891;BME280;55932;48.702;8.884;2023-06-05T14:47:19;96030;;;30.5;43
68891;BME280;55932;48.702;8.884;2023-06-05T14:49:50;96040;;;30.6;42.5
68891;BME280;55932;48.702;8.884;2023-06-05T14:54:52;96040;;;30.7;42.5
68891;BME280;55932;48.702;8.884;2023-06-05T14:57:24;96030;;;30.6;42.5
68891;BME280;55932;48.702;8.884;2023-06-05T14:59:54;96040;;;30.3;42.5
68891;BME280;55932;48.702;8.884;2023-06-05T15:02:26;96030;;;30.4;42.5
68891;BME280;55932;48.702;8.884;2023-06-05T15:05:01;96040;;;29.5;43.5
68891;BME280;55932;48.702;8.884;2023-06-05T15:07:35;96040;;;29.7;43
68891;BME280;55932;48.702;8.884;2023-06-05T15:10:05;96030;;;29.6;43
68891;BME280;55932;48.702;8.884;2023-06-05T15:12:36;96040;;;30.1;42.5
68891;BME280;55932;48.702;8.884;2023-06-05T15:17:31;96030;;;29.7;42.5
68891;BME280;55932;48.702;8.884;2023-06-05T15:22:34;96030;;;30.5;41.5
68891;BME280;55932;48.702;8.884;2023-06-05T15:25:04;96030;;;31.2;41
68891;BME280;55932;48.702;8.884;2023-06-05T15:27:35;96030;;;30;42
68891;BME280;55932;48.702;8.884;2023-06-05T15:30:13;96030;;;29.1;43
68891;BME280;55932;48.702;8.884;2023-06-05T15:32:37;96030;;;29.3;42.5
68891;BME280;55932;48.702;8.884;2023-06-05T15:35:08;96030;;;29.6;42.5
68891;BME280;55932;48.702;8.884;2023-06-05T15:37:39;96020;;;29.1;43
68891;BME280;55932;48.702;8.884;2023-06-05T15:40:17;96020;;;29.6;42
68891;BME280;55932;48.702;8.884;2023-06-05T15:42:41;96020;;;29.4;42.5
68891;BME280;55932;48.702;8.884;2023-06-05T15:45:13;96020;;;29.4;42.5
68891;BME280;55932;48.702;8.884;2023-06-05T15:47:43;96010;;;29.1;42.5
68891;BME280;55932;48.702;8.884;2023-06-05T15:50:14;96020;;;29.1;43
68891;BME280;55932;48.702;8.884;2023-06-05T15:52:44;96010;;;29.3;42.5
68891;BME280;55932;48.702;8.884;2023-06-05T15:55:15;96020;;;28.7;43
68891;BME280;55932;48.702;8.884;2023-06-05T15:57:46;96010;;;28.8;43
68891;BME280;55932;48.702;8.884;2023-06-05T16:02:41;96010;;;29.2;42.5
68891;BME280;55932;48.702;8.884;2023-06-05T16:05:12;96000;;;29.2;42.5
68891;BME280;55932;48.702;8.884;2023-06-05T16:07:43;96010;;;28.7;43
68891;BME280;55932;48.702;8.884;2023-06-05T16:10:14;96000;;;28.5;43
68891;BME280;55932;48.702;8.884;2023-06-05T16:12:45;96000;;;29;42.5
68891;BME280;55932;48.702;8.884;2023-06-05T16:15:22;95990;;;29.5;42
68891;BME280;55932;48.702;8.884;2023-06-05T16:20:24;96000;;;29.1;42
68891;BME280;55932;48.702;8.884;2023-06-05T16:23:01;96000;;;28.5;43
68891;BME280;55932;48.702;8.884;2023-06-05T16:27:57;96000;;;27.8;44
68891;BME280;55932;48.702;8.884;2023-06-05T16:30:34;96000;;;28;44
68891;BME280;55932;48.702;8.884;2023-06-05T16:33:04;96000;;;28.2;43.5
68891;BME280;55932;48.702;8.884;2023-06-05T16:35:34;95990;;;28.8;42.5
68891;BME280;55932;48.702;8.884;2023-06-05T16:38:04;95990;;;28.7;42.5
68891;BME280;55932;48.702;8.884;2023-06-05T16:40:41;96000;;;28.4;42.5
68891;BME280;55932;48.702;8.884;2023-06-05T16:43:18;96000;;;27.9;43.5
68891;BME280;55932;48.702;8.884;2023-06-05T16:47:52;96000;;;27.9;43
68891;BME280;55932;48.702;8.884;2023-06-05T16:50:23;96000;;;27.6;43
68891;BME280;55932;48.702;8.884;2023-06-05T16:52:53;96000;;;26.9;43.5
68891;BME280;55932;48.702;8.884;2023-06-05T17:02:57;96000;;;24.6;46
68891;BME280;55932;48.702;8.884;2023-06-05T17:05:27;96010;;;24.5;46.5
68891;BME280;55932;48.702;8.884;2023-06-05T17:07:59;96010;;;24.4;46.5
68891;BME280;55932;48.702;8.884;2023-06-05T17:10:29;96000;;;24.3;46.5
68891;BME280;55932;48.702;8.884;2023-06-05T17:13:00;96010;;;24.1;46.5
68891;BME280;55932;48.702;8.884;2023-06-05T17:15:31;96010;;;24.1;46.5
68891;BME280;55932;48.702;8.884;2023-06-05T17:18:08;96000;;;24.1;46.5
68891;BME280;55932;48.702;8.884;2023-06-05T17:20:39;96010;;;24;47
68891;BME280;55932;48.702;8.884;2023-06-05T17:23:16;96010;;;23.9;47
68891;BME280;55932;48.702;8.884;2023-06-05T17:28:12;96010;;;23.9;47
68891;BME280;55932;48.702;8.884;2023-06-05T17:33:27;96010;;;23.7;47
68891;BME280;55932;48.702;8.884;2023-06-05T17:35:50;96010;;;23.6;47
68891;BME280;55932;48.702;8.884;2023-06-05T17:38:20;96010;;;23.5;47.5
68891;BME280;55932;48.702;8.884;2023-06-05T17:40:57;96010;;;23.4;47.5
68891;BME280;55932;48.702;8.884;2023-06-05T17:43:21;96020;;;23.3;47.5
68891;BME280;55932;48.702;8.884;2023-06-05T17:45:51;96020;;;23.2;47.5
68891;BME280;55932;48.702;8.884;2023-06-05T17:48:21;96020;;;23.2;47.5
68891;BME280;55932;48.702;8.884;2023-06-05T17:50:46;96010;;;23.1;47.5
68891;BME280;55932;48.702;8.884;2023-06-05T17:53:17;96020;;;22.9;47.5
68891;BME280;55932;48.702;8.884;2023-06-05T17:55:48;96020;;;22.8;48
68891;BME280;55932;48.702;8.884;2023-06-05T17:58:19;96010;;;22.7;48
68891;BME280;55932;48.702;8.884;2023-06-05T18:00:49;96020;;;22.6;48
68891;BME280;55932;48.702;8.884;2023-06-05T18:03:20;96020;;;22.5;48
68891;BME280;55932;48.702;8.884;2023-06-05T18:05:51;96010;;;22.4;48
68891;BME280;55932;48.702;8.884;2023-06-05T18:08:22;96020;;;22.3;48
68891;BME280;55932;48.702;8.884;2023-06-05T18:11:05;96020;;;22.2;48
68891;BME280;55932;48.702;8.884;2023-06-05T18:13:24;96020;;;22.1;48.5